sensor_id;sensor_type;location;lat;lon;timestamp;pressure;altitude;pressure_sealevel;temperature;humidity
42887;BME280;29032;56.028;92.904;2023-05-20T00:03:25;100890.88;;;8.79;44.80
42887;BME280;29032;56.028;92.904;2023-05-20T00:13:49;100906.13;;;8.98;44.82
42887;BME280;29032;56.028;92.904;2023-05-20T00:19:09;100898.69;;;9.04;44.63
42887;BME280;29032;56.028;92.904;2023-05-20T00:24:12;100904.63;;;9.12;43.50
42887;BME280;29032;56.028;92.904;2023-05-20T00:29:34;100911.03;;;9.18;43.69
42887;BME280;29032;56.028;92.904;2023-05-20T00:34:36;100912.25;;;9.02;43.97
42887;BME280;29032;56.028;92.904;2023-05-20T00:39:56;100914.69;;;9.00;44.12
42887;BME280;29032;56.028;92.904;2023-05-20T00:45:00;100897.81;;;8.98;43.57
42887;BME280;29032;56.028;92.904;2023-05-20T00:50:02;100903.47;;;9.04;44.16
42887;BME280;29032;56.028;92.904;2023-05-20T00:55:05;100907.50;;;9.17;43.53
42887;BME280;29032;56.028;92.904;2023-05-20T01:00:09;100903.63;;;9.39;43.39
42887;BME280;29032;56.028;92.904;2023-05-20T01:05:12;100904.88;;;9.53;43.34
42887;BME280;29032;56.028;92.904;2023-05-20T01:10:14;100912.69;;;9.69;42.69
42887;BME280;29032;56.028;92.904;2023-05-20T01:15:18;100909.38;;;9.80;42.50
42887;BME280;29032;56.028;92.904;2023-05-20T01:20:22;100900.53;;;9.96;43.04
42887;BME280;29032;56.028;92.904;2023-05-20T01:25:25;100907.66;;;10.17;42.05
42887;BME280;29032;56.028;92.904;2023-05-20T01:30:29;100907.84;;;10.28;42.04
42887;BME280;29032;56.028;92.904;2023-05-20T01:35:34;100915.03;;;10.41;42.56
42887;BME280;29032;56.028;92.904;2023-05-20T01:40:38;100926.09;;;10.55;42.05
42887;BME280;29032;56.028;92.904;2023-05-20T01:45:58;100928.69;;;10.79;41.63
42887;BME280;29032;56.028;92.904;2023-05-20T01:51:01;100919.19;;;10.86;40.84
42887;BME280;29032;56.028;92.904;2023-05-20T01:56:23;100923.41;;;11.02;40.84
42887;BME280;29032;56.028;92.904;2023-05-20T02:01:25;100929.97;;;10.99;41.13
42887;BME280;29032;56.028;92.904;2023-05-20T02:06:27;100925.50;;;11.07;40.92
42887;BME280;29032;56.028;92.904;2023-05-20T02:11:49;100924.09;;;11.17;40.53
42887;BME280;29032;56.028;92.904;2023-05-20T02:22:11;100930.44;;;11.44;39.50
42887;BME280;29032;56.028;92.904;2023-05-20T02:27:14;100926.34;;;11.65;39.34
42887;BME280;29032;56.028;92.904;2023-05-20T02:32:16;100922.66;;;11.79;39.24
42887;BME280;29032;56.028;92.904;2023-05-20T02:37:18;100911.94;;;11.98;38.78
42887;BME280;29032;56.028;92.904;2023-05-20T02:42:22;100909.50;;;12.11;39.45
42887;BME280;29032;56.028;92.904;2023-05-20T02:52:45;100898.34;;;12.49;37.85
42887;BME280;29032;56.028;92.904;2023-05-20T02:57:48;100890.59;;;12.69;37.16
42887;BME280;29032;56.028;92.904;2023-05-20T03:08:11;100882.63;;;13.11;36.52
42887;BME280;29032;56.028;92.904;2023-05-20T03:18:34;100875.31;;;13.41;35.79
42887;BME280;29032;56.028;92.904;2023-05-20T03:23:36;100874.34;;;13.55;33.07
42887;BME280;29032;56.028;92.904;2023-05-20T03:28:41;100862.69;;;13.74;33.54
42887;BME280;29032;56.028;92.904;2023-05-20T03:33:44;100856.84;;;13.89;33.45
42887;BME280;29032;56.028;92.904;2023-05-20T03:38:46;100862.13;;;14.03;32.26
42887;BME280;29032;56.028;92.904;2023-05-20T03:43:50;100854.47;;;14.21;31.77
42887;BME280;29032;56.028;92.904;2023-05-20T03:48:52;100844.78;;;14.33;31.93
42887;BME280;29032;56.028;92.904;2023-05-20T03:54:12;100845.50;;;14.45;29.96
42887;BME280;29032;56.028;92.904;2023-05-20T03:59:17;100835.03;;;14.56;30.04
42887;BME280;29032;56.028;92.904;2023-05-20T04:04:20;100825.34;;;14.69;30.64
42887;BME280;29032;56.028;92.904;2023-05-20T04:09:22;100831.38;;;14.84;29.59
42887;BME280;29032;56.028;92.904;2023-05-20T04:14:26;100824.69;;;14.98;29.15
42887;BME280;29032;56.028;92.904;2023-05-20T04:24:49;100798.44;;;15.07;29.70
42887;BME280;29032;56.028;92.904;2023-05-20T04:29:52;100801.84;;;15.30;29.55
42887;BME280;29032;56.028;92.904;2023-05-20T04:35:13;100801.97;;;15.43;29.10
42887;BME280;29032;56.028;92.904;2023-05-20T04:40:36;100794.88;;;15.72;28.77
42887;BME280;29032;56.028;92.904;2023-05-20T04:45:58;100784.31;;;15.84;29.91
42887;BME280;29032;56.028;92.904;2023-05-20T04:51:02;100781.00;;;15.85;28.64
42887;BME280;29032;56.028;92.904;2023-05-20T04:56:24;100768.41;;;16.16;27.67
42887;BME280;29032;56.028;92.904;2023-05-20T05:01:28;100762.59;;;16.33;28.39
42887;BME280;29032;56.028;92.904;2023-05-20T05:06:30;100761.91;;;16.46;28.01
42887;BME280;29032;56.028;92.904;2023-05-20T05:11:51;100749.13;;;16.69;28.58
42887;BME280;29032;56.028;92.904;2023-05-20T05:22:16;100742.38;;;17.10;26.32
42887;BME280;29032;56.028;92.904;2023-05-20T05:27:17;100736.91;;;17.18;25.36
42887;BME280;29032;56.028;92.904;2023-05-20T05:32:21;100723.22;;;17.27;24.64
42887;BME280;29032;56.028;92.904;2023-05-20T05:37:23;100714.63;;;17.52;26.84
42887;BME280;29032;56.028;92.904;2023-05-20T05:42:27;100713.69;;;17.89;25.47
42887;BME280;29032;56.028;92.904;2023-05-20T05:47:31;100711.13;;;18.25;25.78
42887;BME280;29032;56.028;92.904;2023-05-20T05:58:15;100695.19;;;18.75;24.50
42887;BME280;29032;56.028;92.904;2023-05-20T06:03:19;100684.19;;;19.06;24.34
42887;BME280;29032;56.028;92.904;2023-05-20T06:08:21;100692.19;;;19.22;24.11
42887;BME280;29032;56.028;92.904;2023-05-20T06:13:23;100685.16;;;19.37;25.41
42887;BME280;29032;56.028;92.904;2023-05-20T06:18:27;100677.41;;;19.50;22.48
42887;BME280;29032;56.028;92.904;2023-05-20T06:23:47;100661.63;;;19.47;22.99
42887;BME280;29032;56.028;92.904;2023-05-20T06:28:50;100662.44;;;19.55;22.99
42887;BME280;29032;56.028;92.904;2023-05-20T06:33:53;100649.94;;;19.72;22.30
42887;BME280;29032;56.028;92.904;2023-05-20T06:38:56;100642.81;;;19.42;21.55
42887;BME280;29032;56.028;92.904;2023-05-20T06:43:59;100641.41;;;19.56;22.25
42887;BME280;29032;56.028;92.904;2023-05-20T06:49:28;100640.69;;;19.64;22.25
42887;BME280;29032;56.028;92.904;2023-05-20T06:54:30;100631.94;;;19.75;23.56
42887;BME280;29032;56.028;92.904;2023-05-20T06:59:32;100614.91;;;19.88;23.38
42887;BME280;29032;56.028;92.904;2023-05-20T07:04:36;100609.13;;;20.01;21.86
42887;BME280;29032;56.028;92.904;2023-05-20T07:09:39;100610.47;;;20.08;21.70
42887;BME280;29032;56.028;92.904;2023-05-20T07:20:22;100583.28;;;20.41;22.56
42887;BME280;29032;56.028;92.904;2023-05-20T07:25:24;100583.03;;;20.08;21.46
42887;BME280;29032;56.028;92.904;2023-05-20T07:30:26;100571.59;;;20.22;20.71
42887;BME280;29032;56.028;92.904;2023-05-20T07:35:50;100578.59;;;20.44;21.68
42887;BME280;29032;56.028;92.904;2023-05-20T07:40:52;100566.94;;;20.39;22.05
42887;BME280;29032;56.028;92.904;2023-05-20T07:45:54;100559.41;;;20.42;19.88
42887;BME280;29032;56.028;92.904;2023-05-20T07:50:58;100548.91;;;20.58;20.66
42887;BME280;29032;56.028;92.904;2023-05-20T07:56:00;100539.47;;;20.71;20.95
42887;BME280;29032;56.028;92.904;2023-05-20T08:01:22;100539.78;;;21.05;20.10
42887;BME280;29032;56.028;92.904;2023-05-20T08:06:26;100546.44;;;20.85;19.82
42887;BME280;29032;56.028;92.904;2023-05-20T08:17:07;100534.34;;;21.07;19.78
42887;BME280;29032;56.028;92.904;2023-05-20T08:22:11;100520.53;;;21.27;19.98
42887;BME280;29032;56.028;92.904;2023-05-20T08:27:13;100523.72;;;21.38;21.08
42887;BME280;29032;56.028;92.904;2023-05-20T08:32:15;100514.31;;;21.68;21.51
42887;BME280;29032;56.028;92.904;2023-05-20T08:37:37;100505.00;;;22.16;20.96
42887;BME280;29032;56.028;92.904;2023-05-20T08:42:58;100505.03;;;22.58;20.49
42887;BME280;29032;56.028;92.904;2023-05-20T08:48:00;100499.44;;;22.50;18.33
42887;BME280;29032;56.028;92.904;2023-05-20T08:53:06;100490.59;;;22.46;18.88
42887;BME280;29032;56.028;92.904;2023-05-20T08:58:09;100494.53;;;22.51;18.09
42887;BME280;29032;56.028;92.904;2023-05-20T09:03:11;100485.53;;;22.45;17.49
42887;BME280;29032;56.028;92.904;2023-05-20T09:08:15;100479.94;;;22.37;17.74
42887;BME280;29032;56.028;92.904;2023-05-20T09:13:17;100464.31;;;22.11;17.54
42887;BME280;29032;56.028;92.904;2023-05-20T09:18:37;100467.97;;;22.46;18.06
42887;BME280;29032;56.028;92.904;2023-05-20T09:23:46;100464.03;;;22.67;18.66
42887;BME280;29032;56.028;92.904;2023-05-20T09:28:48;100448.81;;;22.62;17.26
42887;BME280;29032;56.028;92.904;2023-05-20T09:33:50;100454.16;;;22.75;17.99
42887;BME280;29032;56.028;92.904;2023-05-20T09:44:34;100431.28;;;23.25;19.34
42887;BME280;29032;56.028;92.904;2023-05-20T09:49:37;100434.88;;;23.53;17.12
42887;BME280;29032;56.028;92.904;2023-05-20T09:54:42;100437.25;;;23.47;16.71
42887;BME280;29032;56.028;92.904;2023-05-20T09:59:46;100416.06;;;23.48;16.52
42887;BME280;29032;56.028;92.904;2023-05-20T10:05:08;100420.63;;;23.70;17.67
42887;BME280;29032;56.028;92.904;2023-05-20T10:10:23;100414.97;;;23.70;17.52
42887;BME280;29032;56.028;92.904;2023-05-20T10:20:53;100415.44;;;24.13;16.53
42887;BME280;29032;56.028;92.904;2023-05-20T10:26:15;100409.19;;;24.24;17.89
42887;BME280;29032;56.028;92.904;2023-05-20T10:31:20;100411.41;;;24.16;16.48
42887;BME280;29032;56.028;92.904;2023-05-20T10:36:22;100399.53;;;23.90;18.19
42887;BME280;29032;56.028;92.904;2023-05-20T10:47:00;100399.63;;;25.07;18.13
42887;BME280;29032;56.028;92.904;2023-05-20T10:52:03;100395.31;;;25.56;17.75
42887;BME280;29032;56.028;92.904;2023-05-20T11:02:46;100390.28;;;27.49;14.68
42887;BME280;29032;56.028;92.904;2023-05-20T11:07:50;100389.03;;;27.40;14.63
42887;BME280;29032;56.028;92.904;2023-05-20T11:12:54;100381.81;;;28.21;14.41
42887;BME280;29032;56.028;92.904;2023-05-20T11:17:59;100367.91;;;28.27;13.38
42887;BME280;29032;56.028;92.904;2023-05-20T11:23:19;100367.50;;;26.17;14.64
42887;BME280;29032;56.028;92.904;2023-05-20T11:28:23;100364.72;;;24.75;16.69
42887;BME280;29032;56.028;92.904;2023-05-20T11:33:25;100364.19;;;24.01;16.89
42887;BME280;29032;56.028;92.904;2023-05-20T11:38:29;100359.72;;;23.52;18.29
42887;BME280;29032;56.028;92.904;2023-05-20T11:43:33;100354.38;;;23.29;18.42
42887;BME280;29032;56.028;92.904;2023-05-20T11:48:35;100353.50;;;22.82;17.84
42887;BME280;29032;56.028;92.904;2023-05-20T11:59:22;100345.69;;;22.38;19.35
42887;BME280;29032;56.028;92.904;2023-05-20T12:04:43;100339.38;;;22.47;18.91
42887;BME280;29032;56.028;92.904;2023-05-20T12:09:45;100332.47;;;22.06;19.51
42887;BME280;29032;56.028;92.904;2023-05-20T12:14:49;100345.75;;;21.96;20.18
42887;BME280;29032;56.028;92.904;2023-05-20T12:19:51;100344.72;;;21.84;20.64
42887;BME280;29032;56.028;92.904;2023-05-20T12:25:13;100333.22;;;21.64;20.25
42887;BME280;29032;56.028;92.904;2023-05-20T12:30:35;100346.81;;;21.58;20.48
42887;BME280;29032;56.028;92.904;2023-05-20T12:35:38;100344.84;;;21.68;21.07
42887;BME280;29032;56.028;92.904;2023-05-20T12:40:40;100349.50;;;21.73;20.35
42887;BME280;29032;56.028;92.904;2023-05-20T12:45:44;100346.34;;;21.44;21.14
42887;BME280;29032;56.028;92.904;2023-05-20T12:56:43;100345.56;;;21.19;21.41
42887;BME280;29032;56.028;92.904;2023-05-20T13:01:47;100336.41;;;21.03;22.02
42887;BME280;29032;56.028;92.904;2023-05-20T13:06:49;100336.06;;;20.59;22.52
42887;BME280;29032;56.028;92.904;2023-05-20T13:11:51;100336.34;;;20.38;22.48
42887;BME280;29032;56.028;92.904;2023-05-20T13:16:55;100332.19;;;20.39;21.98
42887;BME280;29032;56.028;92.904;2023-05-20T13:21:57;100329.00;;;20.20;22.57
42887;BME280;29032;56.028;92.904;2023-05-20T13:32:57;100333.56;;;19.92;23.20
42887;BME280;29032;56.028;92.904;2023-05-20T13:37:59;100326.81;;;19.65;22.83
42887;BME280;29032;56.028;92.904;2023-05-20T13:43:01;100333.91;;;19.35;24.19
42887;BME280;29032;56.028;92.904;2023-05-20T13:48:05;100334.47;;;19.26;23.46
42887;BME280;29032;56.028;92.904;2023-05-20T13:53:08;100339.50;;;19.05;23.90
42887;BME280;29032;56.028;92.904;2023-05-20T13:58:10;100337.56;;;18.84;23.82
42887;BME280;29032;56.028;92.904;2023-05-20T14:03:13;100342.13;;;18.59;23.77
42887;BME280;29032;56.028;92.904;2023-05-20T14:08:15;100335.34;;;18.18;23.94
42887;BME280;29032;56.028;92.904;2023-05-20T14:13:17;100350.94;;;17.98;24.20
42887;BME280;29032;56.028;92.904;2023-05-20T14:18:39;100344.34;;;17.96;24.38
42887;BME280;29032;56.028;92.904;2023-05-20T14:23:41;100334.94;;;17.64;24.43
42887;BME280;29032;56.028;92.904;2023-05-20T14:28:43;100336.31;;;17.50;24.20
42887;BME280;29032;56.028;92.904;2023-05-20T14:33:47;100338.50;;;17.44;24.70
42887;BME280;29032;56.028;92.904;2023-05-20T14:39:07;100328.63;;;17.30;24.94
42887;BME280;29032;56.028;92.904;2023-05-20T14:44:09;100333.97;;;17.20;25.05
42887;BME280;29032;56.028;92.904;2023-05-20T14:54:52;100330.16;;;16.97;24.83
42887;BME280;29032;56.028;92.904;2023-05-20T15:00:12;100329.41;;;16.96;25.14
42887;BME280;29032;56.028;92.904;2023-05-20T15:15:58;100315.28;;;16.41;25.83
42887;BME280;29032;56.028;92.904;2023-05-20T15:21:01;100309.56;;;16.34;26.39
42887;BME280;29032;56.028;92.904;2023-05-20T15:26:03;100313.16;;;16.21;26.74
42887;BME280;29032;56.028;92.904;2023-05-20T15:31:06;100307.66;;;16.02;27.03
42887;BME280;29032;56.028;92.904;2023-05-20T15:36:09;100308.28;;;15.95;27.90
42887;BME280;29032;56.028;92.904;2023-05-20T15:41:12;100312.81;;;15.85;26.96
42887;BME280;29032;56.028;92.904;2023-05-20T15:46:32;100309.69;;;15.88;26.81
42887;BME280;29032;56.028;92.904;2023-05-20T15:51:36;100308.66;;;15.59;27.59
42887;BME280;29032;56.028;92.904;2023-05-20T15:56:38;100310.75;;;15.40;28.23
42887;BME280;29032;56.028;92.904;2023-05-20T16:01:40;100306.59;;;15.28;28.43
42887;BME280;29032;56.028;92.904;2023-05-20T16:07:02;100309.28;;;15.20;29.17
42887;BME280;29032;56.028;92.904;2023-05-20T16:12:05;100300.75;;;15.12;29.33
42887;BME280;29032;56.028;92.904;2023-05-20T16:17:07;100307.91;;;15.27;29.87
42887;BME280;29032;56.028;92.904;2023-05-20T16:22:10;100308.47;;;15.38;30.22
42887;BME280;29032;56.028;92.904;2023-05-20T16:27:13;100304.28;;;15.32;30.08
42887;BME280;29032;56.028;92.904;2023-05-20T16:32:15;100294.31;;;15.17;29.62
42887;BME280;29032;56.028;92.904;2023-05-20T16:37:18;100296.44;;;15.11;30.18
42887;BME280;29032;56.028;92.904;2023-05-20T16:42:20;100289.50;;;14.99;30.87
42887;BME280;29032;56.028;92.904;2023-05-20T16:47:22;100285.28;;;14.92;31.31
42887;BME280;29032;56.028;92.904;2023-05-20T16:52:26;100286.81;;;14.93;30.68
42887;BME280;29032;56.028;92.904;2023-05-20T16:57:28;100284.25;;;14.77;30.80
42887;BME280;29032;56.028;92.904;2023-05-20T17:02:30;100275.19;;;14.71;30.71
42887;BME280;29032;56.028;92.904;2023-05-20T17:07:34;100272.19;;;14.69;31.07
42887;BME280;29032;56.028;92.904;2023-05-20T17:12:36;100264.91;;;14.60;30.56
42887;BME280;29032;56.028;92.904;2023-05-20T17:17:38;100269.13;;;14.48;30.84
42887;BME280;29032;56.028;92.904;2023-05-20T17:22:41;100268.97;;;14.40;31.75
42887;BME280;29032;56.028;92.904;2023-05-20T17:27:44;100260.97;;;14.31;31.13
42887;BME280;29032;56.028;92.904;2023-05-20T17:32:46;100266.91;;;14.22;31.45
42887;BME280;29032;56.028;92.904;2023-05-20T17:43:28;100251.94;;;14.00;32.48
42887;BME280;29032;56.028;92.904;2023-05-20T17:48:30;100255.00;;;14.02;32.12
42887;BME280;29032;56.028;92.904;2023-05-20T17:53:34;100253.53;;;13.96;34.26
42887;BME280;29032;56.028;92.904;2023-05-20T17:58:54;100247.38;;;14.03;31.85
42887;BME280;29032;56.028;92.904;2023-05-20T18:04:14;100242.06;;;13.99;32.08
42887;BME280;29032;56.028;92.904;2023-05-20T18:09:18;100239.16;;;13.86;32.77
42887;BME280;29032;56.028;92.904;2023-05-20T18:14:38;100237.06;;;13.92;31.98
42887;BME280;29032;56.028;92.904;2023-05-20T18:19:58;100239.72;;;13.60;34.30
42887;BME280;29032;56.028;92.904;2023-05-20T18:25:02;100231.06;;;13.64;31.85
42887;BME280;29032;56.028;92.904;2023-05-20T18:30:06;100223.59;;;13.72;31.97
42887;BME280;29032;56.028;92.904;2023-05-20T18:35:08;100223.03;;;13.79;31.29
42887;BME280;29032;56.028;92.904;2023-05-20T18:40:13;100222.16;;;13.90;31.40
42887;BME280;29032;56.028;92.904;2023-05-20T18:45:15;100216.03;;;13.91;31.16
42887;BME280;29032;56.028;92.904;2023-05-20T18:50:17;100216.50;;;13.95;31.29
42887;BME280;29032;56.028;92.904;2023-05-20T18:55:20;100211.22;;;13.92;31.93
42887;BME280;29032;56.028;92.904;2023-05-20T19:00:41;100212.41;;;13.77;31.79
42887;BME280;29032;56.028;92.904;2023-05-20T19:05:43;100213.72;;;13.71;31.92
42887;BME280;29032;56.028;92.904;2023-05-20T19:10:47;100213.19;;;13.72;32.08
42887;BME280;29032;56.028;92.904;2023-05-20T19:15:49;100207.19;;;13.68;31.09
42887;BME280;29032;56.028;92.904;2023-05-20T19:20:51;100210.59;;;13.55;32.01
42887;BME280;29032;56.028;92.904;2023-05-20T19:26:12;100200.91;;;13.62;31.66
42887;BME280;29032;56.028;92.904;2023-05-20T19:31:14;100191.47;;;13.41;32.97
42887;BME280;29032;56.028;92.904;2023-05-20T19:36:16;100189.44;;;13.41;32.05
42887;BME280;29032;56.028;92.904;2023-05-20T19:41:20;100188.94;;;13.37;33.07
42887;BME280;29032;56.028;92.904;2023-05-20T19:46:22;100192.78;;;13.10;32.42
42887;BME280;29032;56.028;92.904;2023-05-20T19:51:42;100190.69;;;13.16;32.18
42887;BME280;29032;56.028;92.904;2023-05-20T19:57:05;100183.97;;;13.00;32.46
42887;BME280;29032;56.028;92.904;2023-05-20T20:07:27;100185.47;;;12.71;32.71
42887;BME280;29032;56.028;92.904;2023-05-20T20:12:30;100175.31;;;12.73;32.61
42887;BME280;29032;56.028;92.904;2023-05-20T20:17:32;100173.84;;;12.67;32.80
42887;BME280;29032;56.028;92.904;2023-05-20T20:22:53;100170.38;;;12.61;33.27
42887;BME280;29032;56.028;92.904;2023-05-20T20:27:56;100161.31;;;12.55;33.17
42887;BME280;29032;56.028;92.904;2023-05-20T20:32:58;100159.38;;;12.38;33.46
42887;BME280;29032;56.028;92.904;2023-05-20T20:38:01;100168.28;;;12.31;33.38
42887;BME280;29032;56.028;92.904;2023-05-20T20:43:04;100155.41;;;12.28;33.58
42887;BME280;29032;56.028;92.904;2023-05-20T20:48:06;100154.44;;;12.14;33.67
42887;BME280;29032;56.028;92.904;2023-05-20T20:53:26;100149.09;;;12.16;33.57
42887;BME280;29032;56.028;92.904;2023-05-20T20:58:30;100151.75;;;11.98;33.32
42887;BME280;29032;56.028;92.904;2023-05-20T21:03:50;100150.28;;;11.85;34.05
42887;BME280;29032;56.028;92.904;2023-05-20T21:14:14;100144.53;;;11.72;34.73
42887;BME280;29032;56.028;92.904;2023-05-20T21:19:16;100146.09;;;11.62;34.49
42887;BME280;29032;56.028;92.904;2023-05-20T21:24:19;100143.56;;;11.53;34.85
42887;BME280;29032;56.028;92.904;2023-05-20T21:29:22;100143.09;;;11.49;35.02
42887;BME280;29032;56.028;92.904;2023-05-20T21:34:24;100132.25;;;11.40;34.49
42887;BME280;29032;56.028;92.904;2023-05-20T21:39:26;100130.72;;;11.38;34.02
42887;BME280;29032;56.028;92.904;2023-05-20T21:44:30;100127.72;;;11.36;34.07
42887;BME280;29032;56.028;92.904;2023-05-20T21:49:50;100126.97;;;11.30;34.50
42887;BME280;29032;56.028;92.904;2023-05-20T21:54:52;100131.28;;;11.20;34.02
42887;BME280;29032;56.028;92.904;2023-05-20T21:59:56;100129.03;;;11.13;34.30
42887;BME280;29032;56.028;92.904;2023-05-20T22:04:58;100126.78;;;11.00;34.67
42887;BME280;29032;56.028;92.904;2023-05-20T22:10:18;100125.75;;;10.98;34.25
42887;BME280;29032;56.028;92.904;2023-05-20T22:15:40;100130.31;;;10.95;34.80
42887;BME280;29032;56.028;92.904;2023-05-20T22:20:42;100125.53;;;10.85;35.24
42887;BME280;29032;56.028;92.904;2023-05-20T22:25:45;100126.78;;;10.83;34.81
42887;BME280;29032;56.028;92.904;2023-05-20T22:30:48;100124.00;;;10.83;34.95
42887;BME280;29032;56.028;92.904;2023-05-20T22:36:08;100114.16;;;10.82;34.87
42887;BME280;29032;56.028;92.904;2023-05-20T22:41:11;100115.44;;;10.81;35.22
42887;BME280;29032;56.028;92.904;2023-05-20T22:46:15;100108.13;;;10.84;35.48
42887;BME280;29032;56.028;92.904;2023-05-20T22:51:17;100117.97;;;10.85;35.20
42887;BME280;29032;56.028;92.904;2023-05-20T22:56:37;100109.09;;;11.03;34.52
42887;BME280;29032;56.028;92.904;2023-05-20T23:01:41;100106.81;;;10.91;35.52
42887;BME280;29032;56.028;92.904;2023-05-20T23:06:43;100106.84;;;10.85;35.42
42887;BME280;29032;56.028;92.904;2023-05-20T23:11:45;100099.28;;;10.86;35.55
42887;BME280;29032;56.028;92.904;2023-05-20T23:16:49;100096.75;;;10.88;35.85
42887;BME280;29032;56.028;92.904;2023-05-20T23:21:51;100097.78;;;10.85;35.96
42887;BME280;29032;56.028;92.904;2023-05-20T23:26:53;100098.78;;;10.81;35.23
42887;BME280;29032;56.028;92.904;2023-05-20T23:31:56;100097.78;;;10.85;35.60
42887;BME280;29032;56.028;92.904;2023-05-20T23:37:16;100081.31;;;11.03;35.07
42887;BME280;29032;56.028;92.904;2023-05-20T23:42:18;100077.53;;;11.01;35.80
42887;BME280;29032;56.028;92.904;2023-05-20T23:47:22;100071.47;;;11.08;35.15
42887;BME280;29032;56.028;92.904;2023-05-20T23:52:42;100070.44;;;11.17;35.11
42887;BME280;29032;56.028;92.904;2023-05-20T23:57:44;100069.69;;;11.10;34.97
